sensor_id;sensor_type;location;lat;lon;timestamp;pressure;altitude;pressure_sealevel;temperature;humidity
35507;BME280;36461;52.018;21.036;2023-01-15T00:00:28;99748.62;;;3.90;88.10
35507;BME280;36461;52.018;21.036;2023-01-15T00:07:30;99732.03;;;3.88;87.91
35507;BME280;36461;52.018;21.036;2023-01-15T00:09:58;99725.51;;;3.89;87.83
35507;BME280;36461;52.018;21.036;2023-01-15T00:12:26;99719.17;;;3.89;87.78
35507;BME280;36461;52.018;21.036;2023-01-15T00:19:29;99705.43;;;3.92;87.51
35507;BME280;36461;52.018;21.036;2023-01-15T00:21:57;99698.75;;;3.93;87.48
35507;BME280;36461;52.018;21.036;2023-01-15T00:24:25;99701.96;;;3.95;87.46
35507;BME280;36461;52.018;21.036;2023-01-15T00:27:12;99693.90;;;3.96;87.22
35507;BME280;36461;52.018;21.036;2023-01-15T00:29:58;99688.42;;;3.96;87.23
35507;BME280;36461;52.018;21.036;2023-01-15T00:32:27;99683.30;;;3.96;87.24
35507;BME280;36461;52.018;21.036;2023-01-15T00:34:59;99678.30;;;3.97;87.05
35507;BME280;36461;52.018;21.036;2023-01-15T00:37:27;99676.06;;;3.98;86.86
35507;BME280;36461;52.018;21.036;2023-01-15T00:39:55;99672.80;;;3.99;86.82
35507;BME280;36461;52.018;21.036;2023-01-15T00:42:23;99668.67;;;3.99;86.86
35507;BME280;36461;52.018;21.036;2023-01-15T00:44:51;99667.48;;;3.99;86.87
35507;BME280;36461;52.018;21.036;2023-01-15T00:47:19;99665.60;;;3.99;86.79
35507;BME280;36461;52.018;21.036;2023-01-15T00:49:48;99665.80;;;3.97;86.68
35507;BME280;36461;52.018;21.036;2023-01-15T00:52:17;99659.33;;;3.96;86.48
35507;BME280;36461;52.018;21.036;2023-01-15T00:54:46;99655.75;;;3.94;86.47
35507;BME280;36461;52.018;21.036;2023-01-15T00:57:15;99649.44;;;3.93;86.23
35507;BME280;36461;52.018;21.036;2023-01-15T00:59:42;99647.94;;;3.91;86.17
35507;BME280;36461;52.018;21.036;2023-01-15T01:02:11;99637.16;;;3.90;86.03
35507;BME280;36461;52.018;21.036;2023-01-15T01:04:39;99631.22;;;3.87;85.95
35507;BME280;36461;52.018;21.036;2023-01-15T01:07:07;99630.22;;;3.85;85.57
35507;BME280;36461;52.018;21.036;2023-01-15T01:09:35;99630.77;;;3.84;85.47
35507;BME280;36461;52.018;21.036;2023-01-15T01:12:03;99626.38;;;3.80;85.58
35507;BME280;36461;52.018;21.036;2023-01-15T01:14:32;99627.41;;;3.79;85.52
35507;BME280;36461;52.018;21.036;2023-01-15T01:17:00;99625.56;;;3.78;85.35
35507;BME280;36461;52.018;21.036;2023-01-15T01:19:28;99622.83;;;3.78;85.50
35507;BME280;36461;52.018;21.036;2023-01-15T01:21:56;99619.45;;;3.75;85.12
35507;BME280;36461;52.018;21.036;2023-01-15T01:24:24;99627.01;;;3.73;85.40
35507;BME280;36461;52.018;21.036;2023-01-15T01:26:52;99623.10;;;3.70;85.16
35507;BME280;36461;52.018;21.036;2023-01-15T01:29:22;99615.09;;;3.69;85.33
35507;BME280;36461;52.018;21.036;2023-01-15T01:31:51;99609.27;;;3.70;85.27
35507;BME280;36461;52.018;21.036;2023-01-15T01:34:19;99600.70;;;3.70;85.24
35507;BME280;36461;52.018;21.036;2023-01-15T01:36:47;99595.08;;;3.68;85.30
35507;BME280;36461;52.018;21.036;2023-01-15T01:39:17;99591.86;;;3.66;85.02
35507;BME280;36461;52.018;21.036;2023-01-15T01:41:46;99592.42;;;3.63;84.97
35507;BME280;36461;52.018;21.036;2023-01-15T01:47:05;99584.31;;;3.57;85.24
35507;BME280;36461;52.018;21.036;2023-01-15T01:49:37;99584.89;;;3.53;84.97
35507;BME280;36461;52.018;21.036;2023-01-15T01:52:12;99585.08;;;3.52;85.08
35507;BME280;36461;52.018;21.036;2023-01-15T01:54:44;99582.19;;;3.50;84.95
35507;BME280;36461;52.018;21.036;2023-01-15T01:57:14;99578.98;;;3.48;85.15
35507;BME280;36461;52.018;21.036;2023-01-15T01:59:44;99572.90;;;3.44;84.89
35507;BME280;36461;52.018;21.036;2023-01-15T02:02:13;99566.95;;;3.41;85.03
35507;BME280;36461;52.018;21.036;2023-01-15T02:04:42;99557.92;;;3.38;84.72
35507;BME280;36461;52.018;21.036;2023-01-15T02:07:11;99545.87;;;3.34;84.56
35507;BME280;36461;52.018;21.036;2023-01-15T02:09:39;99535.49;;;3.30;84.82
35507;BME280;36461;52.018;21.036;2023-01-15T02:12:19;99530.09;;;3.26;84.69
35507;BME280;36461;52.018;21.036;2023-01-15T02:17:54;99523.06;;;3.16;84.51
35507;BME280;36461;52.018;21.036;2023-01-15T02:20:50;99525.34;;;3.12;84.38
35507;BME280;36461;52.018;21.036;2023-01-15T02:29:03;99532.34;;;3.02;84.50
35507;BME280;36461;52.018;21.036;2023-01-15T02:31:37;99531.16;;;3.01;84.69
35507;BME280;36461;52.018;21.036;2023-01-15T02:36:48;99525.39;;;2.98;84.93
35507;BME280;36461;52.018;21.036;2023-01-15T02:39:26;99531.20;;;2.98;84.73
35507;BME280;36461;52.018;21.036;2023-01-15T02:41:59;99532.77;;;2.96;84.75
35507;BME280;36461;52.018;21.036;2023-01-15T02:44:32;99526.98;;;2.94;84.67
35507;BME280;36461;52.018;21.036;2023-01-15T02:47:04;99536.25;;;2.92;84.55
35507;BME280;36461;52.018;21.036;2023-01-15T02:49:34;99528.92;;;2.90;84.82
35507;BME280;36461;52.018;21.036;2023-01-15T02:52:14;99525.86;;;2.89;84.72
35507;BME280;36461;52.018;21.036;2023-01-15T02:54:57;99519.36;;;2.89;84.91
35507;BME280;36461;52.018;21.036;2023-01-15T02:57:31;99507.58;;;2.90;84.90
35507;BME280;36461;52.018;21.036;2023-01-15T03:00:04;99502.73;;;2.93;84.92
35507;BME280;36461;52.018;21.036;2023-01-15T03:02:48;99486.26;;;2.97;84.95
35507;BME280;36461;52.018;21.036;2023-01-15T03:05:25;99477.80;;;3.03;85.12
35507;BME280;36461;52.018;21.036;2023-01-15T03:08:02;99473.95;;;3.09;84.99
35507;BME280;36461;52.018;21.036;2023-01-15T03:13:21;99459.05;;;3.21;84.96
35507;BME280;36461;52.018;21.036;2023-01-15T03:19:01;99441.67;;;3.26;84.71
35507;BME280;36461;52.018;21.036;2023-01-15T03:21:49;99442.31;;;3.29;84.90
35507;BME280;36461;52.018;21.036;2023-01-15T03:24:30;99439.20;;;3.30;84.70
35507;BME280;36461;52.018;21.036;2023-01-15T03:27:00;99432.50;;;3.32;84.68
35507;BME280;36461;52.018;21.036;2023-01-15T03:29:32;99425.36;;;3.30;84.22
35507;BME280;36461;52.018;21.036;2023-01-15T03:32:02;99420.98;;;3.27;84.26
35507;BME280;36461;52.018;21.036;2023-01-15T03:34:44;99423.90;;;3.25;84.38
35507;BME280;36461;52.018;21.036;2023-01-15T03:37:20;99427.82;;;3.27;84.31
35507;BME280;36461;52.018;21.036;2023-01-15T03:39:51;99428.83;;;3.27;84.22
35507;BME280;36461;52.018;21.036;2023-01-15T03:42:47;99419.73;;;3.30;84.33
35507;BME280;36461;52.018;21.036;2023-01-15T03:45:25;99408.78;;;3.30;83.94
35507;BME280;36461;52.018;21.036;2023-01-15T03:48:19;99408.54;;;3.34;84.09
35507;BME280;36461;52.018;21.036;2023-01-15T03:51:00;99389.18;;;3.35;84.10
35507;BME280;36461;52.018;21.036;2023-01-15T03:53:53;99392.77;;;3.35;83.80
35507;BME280;36461;52.018;21.036;2023-01-15T03:56:29;99391.89;;;3.38;83.84
35507;BME280;36461;52.018;21.036;2023-01-15T03:59:09;99383.81;;;3.39;83.66
35507;BME280;36461;52.018;21.036;2023-01-15T04:01:51;99384.80;;;3.41;83.79
35507;BME280;36461;52.018;21.036;2023-01-15T04:04:25;99382.89;;;3.43;83.79
35507;BME280;36461;52.018;21.036;2023-01-15T04:06:54;99380.13;;;3.44;83.51
35507;BME280;36461;52.018;21.036;2023-01-15T04:09:23;99369.34;;;3.45;83.69
35507;BME280;36461;52.018;21.036;2023-01-15T04:11:59;99359.41;;;3.46;83.81
35507;BME280;36461;52.018;21.036;2023-01-15T04:14:31;99359.40;;;3.46;83.68
35507;BME280;36461;52.018;21.036;2023-01-15T04:17:06;99362.30;;;3.46;83.70
35507;BME280;36461;52.018;21.036;2023-01-15T04:19:34;99365.23;;;3.45;83.31
35507;BME280;36461;52.018;21.036;2023-01-15T04:22:08;99357.63;;;3.48;83.51
35507;BME280;36461;52.018;21.036;2023-01-15T04:24:37;99362.04;;;3.50;83.29
35507;BME280;36461;52.018;21.036;2023-01-15T04:27:05;99356.55;;;3.52;83.30
35507;BME280;36461;52.018;21.036;2023-01-15T04:29:33;99345.89;;;3.55;83.29
35507;BME280;36461;52.018;21.036;2023-01-15T04:32:01;99341.02;;;3.59;83.38
35507;BME280;36461;52.018;21.036;2023-01-15T04:34:29;99331.57;;;3.60;82.90
35507;BME280;36461;52.018;21.036;2023-01-15T04:36:57;99319.34;;;3.64;82.81
35507;BME280;36461;52.018;21.036;2023-01-15T04:39:24;99312.61;;;3.67;82.81
35507;BME280;36461;52.018;21.036;2023-01-15T04:41:52;99306.04;;;3.70;82.86
35507;BME280;36461;52.018;21.036;2023-01-15T04:44:39;99301.23;;;3.71;82.70
35507;BME280;36461;52.018;21.036;2023-01-15T04:47:07;99291.67;;;3.69;82.57
35507;BME280;36461;52.018;21.036;2023-01-15T04:49:36;99295.45;;;3.69;82.64
35507;BME280;36461;52.018;21.036;2023-01-15T04:52:04;99294.43;;;3.69;82.34
35507;BME280;36461;52.018;21.036;2023-01-15T04:54:32;99298.36;;;3.69;82.25
35507;BME280;36461;52.018;21.036;2023-01-15T04:57:00;99300.55;;;3.71;82.29
35507;BME280;36461;52.018;21.036;2023-01-15T04:59:27;99291.64;;;3.72;81.90
35507;BME280;36461;52.018;21.036;2023-01-15T05:01:55;99298.95;;;3.74;82.02
35507;BME280;36461;52.018;21.036;2023-01-15T05:04:33;99296.02;;;3.75;81.83
35507;BME280;36461;52.018;21.036;2023-01-15T05:07:03;99297.40;;;3.74;81.88
35507;BME280;36461;52.018;21.036;2023-01-15T05:09:32;99292.16;;;3.71;81.46
35507;BME280;36461;52.018;21.036;2023-01-15T05:12:00;99282.92;;;3.70;81.59
35507;BME280;36461;52.018;21.036;2023-01-15T05:14:28;99285.80;;;3.73;81.71
35507;BME280;36461;52.018;21.036;2023-01-15T05:16:56;99284.04;;;3.74;81.58
35507;BME280;36461;52.018;21.036;2023-01-15T05:19:23;99283.98;;;3.78;81.64
35507;BME280;36461;52.018;21.036;2023-01-15T05:21:52;99285.45;;;3.80;81.61
35507;BME280;36461;52.018;21.036;2023-01-15T05:24:20;99283.18;;;3.83;81.30
35507;BME280;36461;52.018;21.036;2023-01-15T05:26:48;99272.91;;;3.83;81.36
35507;BME280;36461;52.018;21.036;2023-01-15T05:29:16;99265.16;;;3.84;81.41
35507;BME280;36461;52.018;21.036;2023-01-15T05:31:45;99249.67;;;3.89;81.21
35507;BME280;36461;52.018;21.036;2023-01-15T05:34:13;99247.55;;;3.91;81.03
35507;BME280;36461;52.018;21.036;2023-01-15T05:36:41;99259.10;;;3.95;81.10
35507;BME280;36461;52.018;21.036;2023-01-15T05:39:09;99256.31;;;3.98;80.97
35507;BME280;36461;52.018;21.036;2023-01-15T05:41:38;99262.52;;;4.02;80.92
35507;BME280;36461;52.018;21.036;2023-01-15T05:44:22;99254.86;;;4.08;80.96
35507;BME280;36461;52.018;21.036;2023-01-15T05:46:52;99258.86;;;4.13;80.77
35507;BME280;36461;52.018;21.036;2023-01-15T05:49:24;99264.27;;;4.16;80.67
35507;BME280;36461;52.018;21.036;2023-01-15T05:51:53;99268.84;;;4.18;80.64
35507;BME280;36461;52.018;21.036;2023-01-15T05:54:24;99275.09;;;4.22;80.67
35507;BME280;36461;52.018;21.036;2023-01-15T05:56:52;99271.45;;;4.24;80.37
35507;BME280;36461;52.018;21.036;2023-01-15T05:59:23;99263.23;;;4.24;79.99
35507;BME280;36461;52.018;21.036;2023-01-15T06:01:51;99251.23;;;4.23;80.12
35507;BME280;36461;52.018;21.036;2023-01-15T06:04:20;99252.95;;;4.24;79.96
35507;BME280;36461;52.018;21.036;2023-01-15T06:06:49;99253.44;;;4.25;79.83
35507;BME280;36461;52.018;21.036;2023-01-15T06:09:18;99247.23;;;4.26;79.59
35507;BME280;36461;52.018;21.036;2023-01-15T06:11:47;99245.63;;;4.29;79.82
35507;BME280;36461;52.018;21.036;2023-01-15T06:14:16;99242.30;;;4.32;79.62
35507;BME280;36461;52.018;21.036;2023-01-15T06:16:44;99236.73;;;4.35;79.43
35507;BME280;36461;52.018;21.036;2023-01-15T06:19:12;99227.60;;;4.37;79.16
35507;BME280;36461;52.018;21.036;2023-01-15T06:21:41;99225.13;;;4.41;79.37
35507;BME280;36461;52.018;21.036;2023-01-15T06:24:09;99222.34;;;4.43;79.03
35507;BME280;36461;52.018;21.036;2023-01-15T06:26:38;99211.69;;;4.43;78.91
35507;BME280;36461;52.018;21.036;2023-01-15T06:29:06;99212.16;;;4.45;78.89
35507;BME280;36461;52.018;21.036;2023-01-15T06:31:34;99212.52;;;4.45;78.92
35507;BME280;36461;52.018;21.036;2023-01-15T06:34:02;99215.25;;;4.45;78.76
35507;BME280;36461;52.018;21.036;2023-01-15T06:36:30;99212.44;;;4.48;79.18
35507;BME280;36461;52.018;21.036;2023-01-15T06:38:58;99214.92;;;4.51;78.97
35507;BME280;36461;52.018;21.036;2023-01-15T06:41:26;99204.90;;;4.54;79.02
35507;BME280;36461;52.018;21.036;2023-01-15T06:44:15;99202.96;;;4.57;78.94
35507;BME280;36461;52.018;21.036;2023-01-15T06:47:13;99204.30;;;4.57;78.69
35507;BME280;36461;52.018;21.036;2023-01-15T06:49:57;99203.71;;;4.61;78.81
35507;BME280;36461;52.018;21.036;2023-01-15T06:52:27;99206.55;;;4.63;78.60
35507;BME280;36461;52.018;21.036;2023-01-15T06:54:55;99207.54;;;4.65;78.83
35507;BME280;36461;52.018;21.036;2023-01-15T06:57:23;99199.29;;;4.65;78.78
35507;BME280;36461;52.018;21.036;2023-01-15T06:59:51;99188.52;;;4.65;78.74
35507;BME280;36461;52.018;21.036;2023-01-15T07:02:20;99184.75;;;4.65;78.75
35507;BME280;36461;52.018;21.036;2023-01-15T07:04:49;99186.58;;;4.67;78.77
35507;BME280;36461;52.018;21.036;2023-01-15T07:07:19;99189.45;;;4.68;78.84
35507;BME280;36461;52.018;21.036;2023-01-15T07:09:48;99187.52;;;4.70;78.68
35507;BME280;36461;52.018;21.036;2023-01-15T07:12:16;99188.80;;;4.73;78.77
35507;BME280;36461;52.018;21.036;2023-01-15T07:14:44;99190.20;;;4.78;78.65
35507;BME280;36461;52.018;21.036;2023-01-15T07:17:12;99188.68;;;4.83;78.79
35507;BME280;36461;52.018;21.036;2023-01-15T07:19:41;99188.41;;;4.87;78.79
35507;BME280;36461;52.018;21.036;2023-01-15T07:22:09;99189.85;;;4.91;78.63
35507;BME280;36461;52.018;21.036;2023-01-15T07:24:38;99187.12;;;4.91;78.76
35507;BME280;36461;52.018;21.036;2023-01-15T07:27:07;99191.70;;;4.92;79.05
35507;BME280;36461;52.018;21.036;2023-01-15T07:29:35;99188.30;;;4.91;79.09
35507;BME280;36461;52.018;21.036;2023-01-15T07:32:03;99188.02;;;4.90;79.52
35507;BME280;36461;52.018;21.036;2023-01-15T07:34:31;99184.90;;;4.90;79.67
35507;BME280;36461;52.018;21.036;2023-01-15T07:36:59;99178.56;;;4.90;79.82
35507;BME280;36461;52.018;21.036;2023-01-15T07:39:27;99175.31;;;4.90;79.70
35507;BME280;36461;52.018;21.036;2023-01-15T07:41:55;99171.56;;;4.89;80.17
35507;BME280;36461;52.018;21.036;2023-01-15T07:44:44;99172.69;;;4.92;80.36
35507;BME280;36461;52.018;21.036;2023-01-15T07:47:32;99171.13;;;4.92;80.56
35507;BME280;36461;52.018;21.036;2023-01-15T07:50:22;99168.28;;;4.96;80.56
35507;BME280;36461;52.018;21.036;2023-01-15T07:52:50;99167.00;;;4.99;80.37
35507;BME280;36461;52.018;21.036;2023-01-15T07:55:21;99165.17;;;5.02;80.56
35507;BME280;36461;52.018;21.036;2023-01-15T07:57:49;99166.11;;;5.06;80.49
35507;BME280;36461;52.018;21.036;2023-01-15T08:00:20;99161.02;;;5.10;80.53
35507;BME280;36461;52.018;21.036;2023-01-15T08:02:49;99163.09;;;5.15;80.58
35507;BME280;36461;52.018;21.036;2023-01-15T08:05:18;99161.14;;;5.17;80.61
35507;BME280;36461;52.018;21.036;2023-01-15T08:07:46;99159.83;;;5.22;80.64
35507;BME280;36461;52.018;21.036;2023-01-15T08:10:16;99156.29;;;5.25;80.47
35507;BME280;36461;52.018;21.036;2023-01-15T08:12:44;99159.35;;;5.26;80.32
35507;BME280;36461;52.018;21.036;2023-01-15T08:15:37;99155.27;;;5.30;80.65
35507;BME280;36461;52.018;21.036;2023-01-15T08:18:06;99151.66;;;5.36;80.62
35507;BME280;36461;52.018;21.036;2023-01-15T08:20:35;99149.73;;;5.43;80.68
35507;BME280;36461;52.018;21.036;2023-01-15T08:23:04;99145.61;;;5.48;80.48
35507;BME280;36461;52.018;21.036;2023-01-15T08:25:32;99145.11;;;5.53;80.19
35507;BME280;36461;52.018;21.036;2023-01-15T08:28:01;99141.52;;;5.59;80.26
35507;BME280;36461;52.018;21.036;2023-01-15T08:30:29;99137.48;;;5.67;80.21
35507;BME280;36461;52.018;21.036;2023-01-15T08:32:59;99141.06;;;5.73;80.09
35507;BME280;36461;52.018;21.036;2023-01-15T08:35:27;99143.13;;;5.79;80.04
35507;BME280;36461;52.018;21.036;2023-01-15T08:37:55;99138.19;;;5.82;79.77
35507;BME280;36461;52.018;21.036;2023-01-15T08:40:23;99135.33;;;5.85;79.73
35507;BME280;36461;52.018;21.036;2023-01-15T08:42:51;99136.02;;;5.91;79.64
35507;BME280;36461;52.018;21.036;2023-01-15T08:45:18;99137.42;;;5.95;79.68
35507;BME280;36461;52.018;21.036;2023-01-15T08:47:46;99136.28;;;5.99;79.48
35507;BME280;36461;52.018;21.036;2023-01-15T08:50:14;99135.68;;;6.02;79.45
35507;BME280;36461;52.018;21.036;2023-01-15T08:52:42;99131.05;;;6.07;79.26
35507;BME280;36461;52.018;21.036;2023-01-15T08:55:10;99132.67;;;6.10;79.40
35507;BME280;36461;52.018;21.036;2023-01-15T08:57:37;99134.32;;;6.17;79.28
35507;BME280;36461;52.018;21.036;2023-01-15T09:00:06;99138.83;;;6.21;78.99
35507;BME280;36461;52.018;21.036;2023-01-15T09:02:35;99136.27;;;6.26;78.86
35507;BME280;36461;52.018;21.036;2023-01-15T09:05:03;99132.73;;;6.28;78.53
35507;BME280;36461;52.018;21.036;2023-01-15T09:07:31;99130.56;;;6.31;78.54
35507;BME280;36461;52.018;21.036;2023-01-15T09:09:59;99130.66;;;6.33;78.71
35507;BME280;36461;52.018;21.036;2023-01-15T09:12:27;99130.23;;;6.36;78.82
35507;BME280;36461;52.018;21.036;2023-01-15T09:14:55;99128.86;;;6.35;78.22
35507;BME280;36461;52.018;21.036;2023-01-15T09:17:31;99129.64;;;6.33;78.23
35507;BME280;36461;52.018;21.036;2023-01-15T09:19:59;99126.04;;;6.33;78.52
35507;BME280;36461;52.018;21.036;2023-01-15T09:22:28;99124.61;;;6.29;78.58
35507;BME280;36461;52.018;21.036;2023-01-15T09:24:58;99122.11;;;6.22;78.48
35507;BME280;36461;52.018;21.036;2023-01-15T09:27:27;99122.72;;;6.15;78.52
35507;BME280;36461;52.018;21.036;2023-01-15T09:29:55;99117.94;;;6.09;79.22
35507;BME280;36461;52.018;21.036;2023-01-15T09:32:23;99118.01;;;6.07;79.30
35507;BME280;36461;52.018;21.036;2023-01-15T09:34:52;99118.14;;;6.03;79.59
35507;BME280;36461;52.018;21.036;2023-01-15T09:37:19;99113.39;;;6.01;79.79
35507;BME280;36461;52.018;21.036;2023-01-15T09:39:47;99113.76;;;6.00;80.47
35507;BME280;36461;52.018;21.036;2023-01-15T09:45:19;99108.48;;;5.98;80.84
35507;BME280;36461;52.018;21.036;2023-01-15T09:51:41;99103.83;;;5.88;81.04
35507;BME280;36461;52.018;21.036;2023-01-15T09:56:19;99096.89;;;5.85;81.47
35507;BME280;36461;52.018;21.036;2023-01-15T09:58:49;99095.40;;;5.83;81.79
35507;BME280;36461;52.018;21.036;2023-01-15T10:01:24;99094.26;;;5.82;81.74
35507;BME280;36461;52.018;21.036;2023-01-15T10:04:12;99088.77;;;5.82;82.02
35507;BME280;36461;52.018;21.036;2023-01-15T10:07:05;99085.84;;;5.77;82.14
35507;BME280;36461;52.018;21.036;2023-01-15T10:09:40;99084.61;;;5.73;82.42
35507;BME280;36461;52.018;21.036;2023-01-15T10:12:19;99081.83;;;5.74;82.66
35507;BME280;36461;52.018;21.036;2023-01-15T10:17:49;99087.98;;;5.79;82.83
35507;BME280;36461;52.018;21.036;2023-01-15T10:23:36;99078.21;;;5.84;83.44
35507;BME280;36461;52.018;21.036;2023-01-15T10:26:31;99076.20;;;5.82;83.36
35507;BME280;36461;52.018;21.036;2023-01-15T10:29:36;99072.95;;;5.82;83.46
35507;BME280;36461;52.018;21.036;2023-01-15T10:35:03;99068.20;;;5.85;83.88
35507;BME280;36461;52.018;21.036;2023-01-15T10:37:42;99065.64;;;5.91;84.38
35507;BME280;36461;52.018;21.036;2023-01-15T10:40:20;99060.66;;;5.90;84.05
35507;BME280;36461;52.018;21.036;2023-01-15T10:43:24;99060.42;;;5.92;84.08
35507;BME280;36461;52.018;21.036;2023-01-15T10:46:02;99055.66;;;5.91;84.35
35507;BME280;36461;52.018;21.036;2023-01-15T10:48:44;99048.89;;;5.93;84.49
35507;BME280;36461;52.018;21.036;2023-01-15T10:51:23;99047.34;;;5.93;84.45
35507;BME280;36461;52.018;21.036;2023-01-15T10:54:05;99045.42;;;5.89;84.44
35507;BME280;36461;52.018;21.036;2023-01-15T10:56:45;99042.10;;;5.91;84.63
35507;BME280;36461;52.018;21.036;2023-01-15T10:59:22;99040.69;;;5.92;84.78
35507;BME280;36461;52.018;21.036;2023-01-15T11:01:56;99040.77;;;5.95;85.07
35507;BME280;36461;52.018;21.036;2023-01-15T11:04:28;99044.57;;;5.94;84.97
35507;BME280;36461;52.018;21.036;2023-01-15T11:06:58;99038.09;;;5.92;84.83
35507;BME280;36461;52.018;21.036;2023-01-15T11:09:28;99035.52;;;5.92;85.07
35507;BME280;36461;52.018;21.036;2023-01-15T11:14:41;99021.98;;;5.86;85.23
35507;BME280;36461;52.018;21.036;2023-01-15T11:17:49;99024.70;;;5.82;85.38
35507;BME280;36461;52.018;21.036;2023-01-15T11:20:43;99022.64;;;5.82;86.07
35507;BME280;36461;52.018;21.036;2023-01-15T11:23:14;99023.30;;;5.83;85.90
35507;BME280;36461;52.018;21.036;2023-01-15T11:25:58;99017.12;;;5.83;86.01
35507;BME280;36461;52.018;21.036;2023-01-15T11:31:03;99017.27;;;5.84;86.00
35507;BME280;36461;52.018;21.036;2023-01-15T11:33:31;99010.13;;;5.82;86.05
35507;BME280;36461;52.018;21.036;2023-01-15T11:36:02;99007.39;;;5.81;86.27
35507;BME280;36461;52.018;21.036;2023-01-15T11:38:46;99008.31;;;5.80;86.23
35507;BME280;36461;52.018;21.036;2023-01-15T11:41:38;99004.90;;;5.79;86.33
35507;BME280;36461;52.018;21.036;2023-01-15T11:44:24;99003.61;;;5.81;86.57
35507;BME280;36461;52.018;21.036;2023-01-15T11:47:11;99000.38;;;5.81;86.55
35507;BME280;36461;52.018;21.036;2023-01-15T11:49:59;98998.89;;;5.84;86.71
35507;BME280;36461;52.018;21.036;2023-01-15T11:52:55;98998.14;;;5.85;86.60
35507;BME280;36461;52.018;21.036;2023-01-15T11:55:25;98996.12;;;5.85;86.83
35507;BME280;36461;52.018;21.036;2023-01-15T11:57:55;98995.61;;;5.84;86.83
35507;BME280;36461;52.018;21.036;2023-01-15T12:00:28;98995.20;;;5.81;86.92
35507;BME280;36461;52.018;21.036;2023-01-15T12:03:01;98993.27;;;5.83;87.02
35507;BME280;36461;52.018;21.036;2023-01-15T12:05:34;98992.24;;;5.87;87.06
35507;BME280;36461;52.018;21.036;2023-01-15T12:08:24;98987.02;;;5.90;87.09
35507;BME280;36461;52.018;21.036;2023-01-15T12:11:30;98984.58;;;5.91;87.23
35507;BME280;36461;52.018;21.036;2023-01-15T12:17:04;98979.88;;;5.93;87.48
35507;BME280;36461;52.018;21.036;2023-01-15T12:25:25;98975.36;;;6.00;87.45
35507;BME280;36461;52.018;21.036;2023-01-15T12:31:03;98978.02;;;6.02;87.23
35507;BME280;36461;52.018;21.036;2023-01-15T12:33:45;98978.53;;;6.02;87.30
35507;BME280;36461;52.018;21.036;2023-01-15T12:36:36;98978.37;;;6.02;87.39
35507;BME280;36461;52.018;21.036;2023-01-15T12:39:26;98980.07;;;6.03;87.05
35507;BME280;36461;52.018;21.036;2023-01-15T12:42:03;98976.43;;;6.03;87.30
35507;BME280;36461;52.018;21.036;2023-01-15T12:44:56;98974.27;;;6.06;87.35
35507;BME280;36461;52.018;21.036;2023-01-15T12:56:03;98974.06;;;5.97;87.35
35507;BME280;36461;52.018;21.036;2023-01-15T12:59:09;98975.49;;;6.01;87.43
35507;BME280;36461;52.018;21.036;2023-01-15T13:04:49;98973.61;;;6.01;87.18
35507;BME280;36461;52.018;21.036;2023-01-15T13:07:33;98976.04;;;6.05;87.32
35507;BME280;36461;52.018;21.036;2023-01-15T13:10:14;98973.58;;;6.06;87.30
35507;BME280;36461;52.018;21.036;2023-01-15T13:12:44;98970.59;;;6.08;87.24
35507;BME280;36461;52.018;21.036;2023-01-15T13:15:17;98970.57;;;6.09;87.10
35507;BME280;36461;52.018;21.036;2023-01-15T13:17:59;98971.25;;;6.09;87.10
35507;BME280;36461;52.018;21.036;2023-01-15T13:20:41;98969.11;;;6.11;86.95
35507;BME280;36461;52.018;21.036;2023-01-15T13:23:42;98969.56;;;6.13;87.12
35507;BME280;36461;52.018;21.036;2023-01-15T13:42:50;98969.12;;;6.16;86.73
35507;BME280;36461;52.018;21.036;2023-01-15T13:48:11;98968.08;;;6.20;86.60
35507;BME280;36461;52.018;21.036;2023-01-15T13:50:55;98965.42;;;6.23;86.29
35507;BME280;36461;52.018;21.036;2023-01-15T13:53:43;98970.15;;;6.25;86.21
35507;BME280;36461;52.018;21.036;2023-01-15T13:56:13;98965.33;;;6.25;86.03
35507;BME280;36461;52.018;21.036;2023-01-15T14:01:34;98963.36;;;6.28;85.92
35507;BME280;36461;52.018;21.036;2023-01-15T14:04:13;98961.83;;;6.27;85.69
35507;BME280;36461;52.018;21.036;2023-01-15T14:06:46;98958.96;;;6.26;85.90
35507;BME280;36461;52.018;21.036;2023-01-15T14:12:22;98967.80;;;6.24;85.33
35507;BME280;36461;52.018;21.036;2023-01-15T14:15:47;98969.24;;;6.21;85.42
35507;BME280;36461;52.018;21.036;2023-01-15T14:18:32;98969.67;;;6.24;85.49
35507;BME280;36461;52.018;21.036;2023-01-15T14:27:11;98979.88;;;6.27;84.85
35507;BME280;36461;52.018;21.036;2023-01-15T14:29:51;98976.56;;;6.28;84.70
35507;BME280;36461;52.018;21.036;2023-01-15T14:32:59;98978.52;;;6.31;84.27
35507;BME280;36461;52.018;21.036;2023-01-15T14:35:39;98988.23;;;6.34;84.26
35507;BME280;36461;52.018;21.036;2023-01-15T14:38:18;98991.79;;;6.35;84.00
35507;BME280;36461;52.018;21.036;2023-01-15T14:40:56;98993.45;;;6.36;84.08
35507;BME280;36461;52.018;21.036;2023-01-15T14:43:28;98994.13;;;6.36;83.90
35507;BME280;36461;52.018;21.036;2023-01-15T14:46:54;98987.80;;;6.35;83.82
35507;BME280;36461;52.018;21.036;2023-01-15T14:49:28;98981.90;;;6.37;83.85
35507;BME280;36461;52.018;21.036;2023-01-15T14:51:57;98984.98;;;6.37;83.73
35507;BME280;36461;52.018;21.036;2023-01-15T14:54:27;98984.78;;;6.38;83.66
35507;BME280;36461;52.018;21.036;2023-01-15T14:56:56;98988.08;;;6.37;83.64
35507;BME280;36461;52.018;21.036;2023-01-15T14:59:53;98986.34;;;6.38;83.56
35507;BME280;36461;52.018;21.036;2023-01-15T15:02:28;98983.05;;;6.38;83.27
35507;BME280;36461;52.018;21.036;2023-01-15T15:05:01;98990.27;;;6.38;83.21
35507;BME280;36461;52.018;21.036;2023-01-15T15:07:41;98985.20;;;6.41;83.24
35507;BME280;36461;52.018;21.036;2023-01-15T15:10:30;98989.06;;;6.43;83.37
35507;BME280;36461;52.018;21.036;2023-01-15T15:16:00;98992.59;;;6.45;82.99
35507;BME280;36461;52.018;21.036;2023-01-15T15:18:36;98986.73;;;6.45;82.76
35507;BME280;36461;52.018;21.036;2023-01-15T15:21:11;98989.98;;;6.46;82.97
35507;BME280;36461;52.018;21.036;2023-01-15T15:23:55;98985.95;;;6.48;83.01
35507;BME280;36461;52.018;21.036;2023-01-15T15:29:01;98984.67;;;6.46;82.98